createdAt,value
2023-07-06T00:02:30.998Z,100409.83
2023-07-06T00:07:37.219Z,100413.73
2023-07-06T00:12:42.720Z,100415.73
2023-07-06T00:17:48.382Z,100416.20
2023-07-06T00:22:55.246Z,100415.17
2023-07-06T00:28:03.414Z,100411.77
2023-07-06T00:33:09.139Z,100402.29
2023-07-06T00:38:16.930Z,100402.45
2023-07-06T00:43:24.674Z,100411.36
2023-07-06T00:48:36.810Z,100414.96
2023-07-06T00:53:45.853Z,100403.27
2023-07-06T00:58:54.947Z,100405.29
2023-07-06T01:04:02.512Z,100399.25
2023-07-06T01:09:09.382Z,100397.50
2023-07-06T01:14:17.628Z,100389.27
2023-07-06T01:19:46.658Z,100383.88
2023-07-06T01:25:15.116Z,100374.77
2023-07-06T01:30:43.516Z,100371.00
2023-07-06T01:35:57.961Z,100373.61
2023-07-06T01:41:04.477Z,100376.46
2023-07-06T01:46:10.240Z,100375.61
2023-07-06T01:51:22.640Z,100374.93
2023-07-06T01:56:35.483Z,100376.55
2023-07-06T02:01:46.141Z,100376.16
2023-07-06T02:06:54.681Z,100373.77
2023-07-06T02:12:00.464Z,100370.65
2023-07-06T02:17:07.481Z,100371.61
2023-07-06T02:22:13.046Z,100375.52
2023-07-06T02:27:20.813Z,100380.94
2023-07-06T02:32:26.582Z,100388.38
2023-07-06T02:37:32.864Z,100381.60
2023-07-06T02:42:38.889Z,100386.36
2023-07-06T02:47:44.683Z,100395.93
2023-07-06T02:52:51.097Z,100402.40
2023-07-06T02:57:57.005Z,100400.50
2023-07-06T03:03:03.929Z,100401.17
2023-07-06T03:08:09.507Z,100402.45
2023-07-06T03:13:15.938Z,100412.27
2023-07-06T03:18:21.709Z,100420.73
2023-07-06T03:23:29.300Z,100417.71
2023-07-06T03:28:36.712Z,100415.23
2023-07-06T03:33:42.746Z,100429.37
2023-07-06T03:38:51.332Z,100431.95
2023-07-06T03:43:59.536Z,100433.21
2023-07-06T03:49:05.899Z,100436.07
2023-07-06T03:54:11.861Z,100431.02
2023-07-06T03:59:17.555Z,100433.01
2023-07-06T04:04:29.542Z,100436.02
2023-07-06T04:09:36.968Z,100441.36
2023-07-06T04:14:42.979Z,100447.81
2023-07-06T04:19:48.655Z,100448.50
2023-07-06T04:24:54.215Z,100458.33
2023-07-06T04:30:00.509Z,100462.24
2023-07-06T04:35:08.039Z,100468.65
2023-07-06T04:40:22.198Z,100467.65
2023-07-06T04:45:28.950Z,100471.64
2023-07-06T04:50:34.519Z,100475.42
2023-07-06T04:55:40.542Z,100475.11
2023-07-06T05:00:47.182Z,100488.21
2023-07-06T05:05:54.224Z,100486.95
2023-07-06T05:11:04.821Z,100487.23
2023-07-06T05:16:10.465Z,100490.73
2023-07-06T05:21:18.528Z,100496.23
2023-07-06T05:26:23.975Z,100505.00
2023-07-06T05:31:29.588Z,100510.29
2023-07-06T05:36:37.789Z,100523.59
2023-07-06T05:41:44.435Z,100520.52
2023-07-06T05:46:49.940Z,100522.39
2023-07-06T05:51:55.808Z,100527.36
2023-07-06T05:57:04.460Z,100531.83
2023-07-06T06:02:14.422Z,100541.77
2023-07-06T06:07:20.782Z,100543.33
2023-07-06T06:12:28.971Z,100552.95
2023-07-06T06:17:35.674Z,100561.84
2023-07-06T06:22:42.152Z,100571.13
2023-07-06T06:27:47.764Z,100586.56
2023-07-06T06:32:53.780Z,100598.38
2023-07-06T06:38:00.294Z,100602.16
2023-07-06T06:43:06.968Z,100604.72
2023-07-06T06:48:13.130Z,100602.35
2023-07-06T06:53:18.637Z,100598.51
2023-07-06T06:58:25.212Z,100596.80
2023-07-06T07:03:31.251Z,100601.27
2023-07-06T07:08:36.857Z,100611.30
2023-07-06T07:13:43.284Z,100618.47
2023-07-06T07:18:49.577Z,100625.63
2023-07-06T07:23:55.442Z,100634.61
2023-07-06T07:29:03.170Z,100636.36
2023-07-06T07:34:08.854Z,100640.28
2023-07-06T07:39:17.191Z,100643.41
2023-07-06T07:44:22.835Z,100647.27
2023-07-06T07:49:28.626Z,100640.45
2023-07-06T07:54:34.243Z,100646.22
2023-07-06T07:59:40.184Z,100643.58
2023-07-06T08:04:45.778Z,100648.92
2023-07-06T08:09:52.206Z,100657.34
2023-07-06T08:14:58.018Z,100668.07
2023-07-06T08:20:45.749Z,100659.73
2023-07-06T08:25:40.079Z,100656.93
2023-07-06T08:30:44.245Z,100654.23
2023-07-06T08:35:51.843Z,100658.70
2023-07-06T08:40:58.634Z,100658.12
2023-07-06T08:46:05.574Z,100655.48
2023-07-06T08:51:17.618Z,100653.27
2023-07-06T08:56:26.770Z,100655.75
2023-07-06T09:01:33.158Z,100665.48
2023-07-06T09:06:46.225Z,100671.27
2023-07-06T09:11:52.450Z,100667.86
2023-07-06T09:16:59.918Z,100670.62
2023-07-06T09:22:06.234Z,100680.84
2023-07-06T09:27:19.060Z,100678.57
2023-07-06T09:32:25.121Z,100679.33
2023-07-06T09:37:30.723Z,100681.41
2023-07-06T09:42:36.580Z,100689.23
2023-07-06T09:47:49.056Z,100692.23
2023-07-06T09:52:57.698Z,100693.66
2023-07-06T09:58:09.063Z,100704.94
2023-07-06T10:03:29.231Z,100709.52
2023-07-06T10:08:40.619Z,100715.92
2023-07-06T10:13:54.743Z,100724.44
2023-07-06T10:19:08.245Z,100720.83
2023-07-06T10:24:27.823Z,100713.22
2023-07-06T10:29:38.582Z,100713.27
2023-07-06T10:34:49.502Z,100708.66
2023-07-06T10:40:11.340Z,100706.45
2023-07-06T10:45:45.009Z,100702.76
2023-07-06T10:50:53.613Z,100705.10
2023-07-06T10:56:08.699Z,100709.09
2023-07-06T11:01:21.217Z,100718.20
2023-07-06T11:06:54.026Z,100721.33
2023-07-06T11:12:25.073Z,100720.77
2023-07-06T11:17:38.003Z,100721.77
2023-07-06T11:22:47.261Z,100725.48
2023-07-06T11:28:00.758Z,100724.69
2023-07-06T11:33:19.467Z,100733.16
2023-07-06T11:38:56.450Z,100732.15
2023-07-06T11:44:33.578Z,100729.13
2023-07-06T11:49:47.334Z,100736.59
2023-07-06T11:55:14.237Z,100744.18
2023-07-06T12:00:26.629Z,100748.77
2023-07-06T12:05:37.020Z,100752.64
2023-07-06T12:10:46.798Z,100756.20
2023-07-06T12:15:54.973Z,100754.26
2023-07-06T12:21:01.089Z,100749.12
2023-07-06T12:26:12.749Z,100744.41
2023-07-06T12:31:20.581Z,100748.38
2023-07-06T12:36:29.998Z,100743.16
2023-07-06T12:41:38.418Z,100744.04
2023-07-06T12:46:51.243Z,100740.45
2023-07-06T12:51:58.972Z,100744.13
2023-07-06T12:57:16.870Z,100743.56
2023-07-06T13:02:24.292Z,100744.34
2023-07-06T13:07:30.277Z,100745.25
2023-07-06T13:12:35.699Z,100739.11
2023-07-06T13:17:49.206Z,100737.20
2023-07-06T13:22:54.905Z,100740.52
2023-07-06T13:28:00.451Z,100747.84
2023-07-06T13:33:06.111Z,100741.62
2023-07-06T13:38:13.446Z,100744.48
2023-07-06T13:43:22.172Z,100747.02
2023-07-06T13:48:28.561Z,100750.36
2023-07-06T13:53:34.306Z,100753.31
2023-07-06T13:58:42.276Z,100756.90
2023-07-06T14:03:48.106Z,100747.20
2023-07-06T14:08:53.925Z,100751.07
2023-07-06T14:13:59.637Z,100753.65
2023-07-06T14:19:06.332Z,100750.25
2023-07-06T14:24:12.961Z,100754.56
2023-07-06T14:29:18.627Z,100755.69
2023-07-06T14:34:25.177Z,100754.30
2023-07-06T14:39:30.739Z,100760.20
2023-07-06T14:44:36.321Z,100753.04
2023-07-06T14:49:42.148Z,100757.09
2023-07-06T14:54:48.785Z,100751.17
2023-07-06T14:59:54.437Z,100747.98
2023-07-06T15:04:59.950Z,100748.96
2023-07-06T15:11:22.389Z,100758.30
2023-07-06T15:16:27.886Z,100762.14
2023-07-06T15:21:33.444Z,100766.23
2023-07-06T15:26:38.937Z,100775.64
2023-07-06T15:31:44.744Z,100777.16
2023-07-06T15:36:50.357Z,100779.77
2023-07-06T15:41:55.974Z,100784.23
2023-07-06T15:47:01.678Z,100782.48
2023-07-06T15:52:08.001Z,100783.77
2023-07-06T15:57:13.474Z,100784.77
2023-07-06T16:02:21.254Z,100788.94
2023-07-06T16:07:36.715Z,100791.79
2023-07-06T16:12:42.189Z,100790.13
2023-07-06T16:17:48.836Z,100785.69
2023-07-06T16:22:54.465Z,100785.45
2023-07-06T16:28:01.366Z,100787.58
2023-07-06T16:33:07.070Z,100789.70
2023-07-06T16:38:12.546Z,100795.73
2023-07-06T16:43:18.219Z,100795.75
2023-07-06T16:48:24.899Z,100796.06
2023-07-06T16:53:31.727Z,100794.44
2023-07-06T16:58:38.389Z,100796.95
2023-07-06T17:03:44.146Z,100798.80
2023-07-06T17:08:50.130Z,100798.20
2023-07-06T17:13:55.872Z,100803.98
2023-07-06T17:19:01.426Z,100800.39
2023-07-06T17:24:07.726Z,100801.86
2023-07-06T17:29:13.383Z,100808.05
2023-07-06T17:34:18.938Z,100802.95
2023-07-06T17:39:25.036Z,100803.92
2023-07-06T17:44:30.557Z,100807.20
2023-07-06T17:49:36.294Z,100810.09
2023-07-06T17:54:42.029Z,100807.06
2023-07-06T17:59:47.573Z,100810.52
2023-07-06T18:04:53.050Z,100814.29
2023-07-06T18:09:58.874Z,100819.02
2023-07-06T18:15:05.341Z,100818.39
2023-07-06T18:20:15.387Z,100825.84
2023-07-06T18:25:23.152Z,100827.33
2023-07-06T18:30:28.625Z,100821.45
2023-07-06T18:35:35.483Z,100823.04
2023-07-06T18:40:40.951Z,100824.30
2023-07-06T18:45:47.451Z,100836.13
2023-07-06T18:50:53.261Z,100834.75
2023-07-06T18:55:59.073Z,100837.69
2023-07-06T19:01:04.991Z,100837.52
2023-07-06T19:11:22.426Z,100843.38
2023-07-06T19:16:28.323Z,100851.80
2023-07-06T19:21:33.773Z,100851.15
2023-07-06T19:26:39.237Z,100854.45
2023-07-06T19:31:44.759Z,100863.23
2023-07-06T19:36:50.712Z,100872.29
2023-07-06T19:41:56.169Z,100880.86
2023-07-06T19:47:01.710Z,100884.72
2023-07-06T19:52:09.163Z,100885.21
2023-07-06T19:57:17.991Z,100891.52
2023-07-06T20:02:25.835Z,100895.50
2023-07-06T20:07:31.591Z,100904.20
2023-07-06T20:12:37.225Z,100908.77
2023-07-06T20:17:42.665Z,100907.52
2023-07-06T20:22:48.254Z,100915.84
2023-07-06T20:27:53.807Z,100921.86
2023-07-06T20:33:01.536Z,100925.35
2023-07-06T20:38:08.135Z,100926.14
2023-07-06T20:43:13.640Z,100938.38
2023-07-06T20:48:19.185Z,100937.94
2023-07-06T20:53:24.736Z,100954.33
2023-07-06T20:58:30.502Z,100954.51
2023-07-06T21:03:36.118Z,100952.64
2023-07-06T21:08:41.873Z,100956.58
2023-07-06T21:13:48.226Z,100957.39
2023-07-06T21:18:53.891Z,100965.10
2023-07-06T21:23:59.361Z,100965.44
2023-07-06T21:29:06.473Z,100974.16
2023-07-06T21:34:15.113Z,100978.70
2023-07-06T21:39:26.010Z,100980.63
2023-07-06T21:44:31.840Z,100974.97
2023-07-06T21:49:37.951Z,100987.29
2023-07-06T21:54:43.897Z,100984.55
2023-07-06T21:59:49.488Z,100980.73
2023-07-06T22:04:55.083Z,100986.18
2023-07-06T22:10:00.701Z,100987.84
2023-07-06T22:15:11.985Z,100996.77
2023-07-06T22:20:22.189Z,100999.98
2023-07-06T22:25:27.688Z,100997.91
2023-07-06T22:30:33.755Z,100996.92
2023-07-06T22:35:40.670Z,100995.69
2023-07-06T22:40:46.499Z,100990.20
2023-07-06T22:45:52.080Z,100990.57
2023-07-06T22:51:02.496Z,100990.56
2023-07-06T22:56:08.648Z,100993.30
2023-07-06T23:01:19.579Z,100993.92
2023-07-06T23:06:25.278Z,101003.74
2023-07-06T23:11:31.314Z,101000.50
2023-07-06T23:16:38.031Z,101000.38
2023-07-06T23:21:43.720Z,100998.91
2023-07-06T23:26:49.445Z,100996.36
2023-07-06T23:31:55.033Z,101000.15
2023-07-06T23:37:01.639Z,100994.27
2023-07-06T23:42:07.872Z,101000.20
2023-07-06T23:47:13.791Z,100998.44
2023-07-06T23:52:19.401Z,100996.61
2023-07-06T23:57:25.126Z,101001.43
